Aérodrome :
LOGIN :

S'inscrire | Disclaimer

   EN    FR    IT 

 










Légende :    VFR   VFR Marginal   IFR   IFR Intensif   IFR Très Intensif
Visi : 
Plafond : 
>= 8 km
>= 3000ft
5 à 8 km
1000 à 3000 ft
1500m à 5 km
500 à 1000 ft
800 à 1500m
200 à 500 ft
< 800m
< 200 ft
Symboles :   Orages  Brouillard  Fortes neiges  Fortes précipitations  Vent > 20 kt
SIGMETs :   Divers  Orages  Givrage  Turbulence  Onde Orograph.  Cendres Volcan.






- Altitude de l'aérodrome : 24 ft
- Code IATA : UME


ESNU - Umeå

DERNIER METAR :
  • 041720Z AUTO 29016KT 9999 NCD 01/M11 Q1013 R14/09//95

METARs EXPIRÉS :
  • 041650Z 28014KT CAVOK 02/M11 Q1012 R14/09//95
  • 041620Z AUTO 27014G24KT 9999 FEW068/// 02/M10 Q1011 R14/09//95
  • 041550Z 28018G30KT CAVOK 03/M12 Q1011 R14/09//95
  • 041520Z 28012KT 9999 FEW060TCU 03/M10 Q1010 R14/09//95

TAF TAF ESNU
Valide du 04 à 18h jusqu'au 05 à 03h UTC


041730Z 0418/0503 28012KT CAVOK



MET'MAP, la Météo Aéronautique d'un coup d'oeil ! - Copyright ORBIFLY Décembre 2007 - Disclaimer

ORBIFLY MET'MAP TEAM :

Programmation & Développement : Alexandra Zaïnal
Sur une idée originale de : Baudouin d'Aumeries
Assistance à la programmation : Marc-Olivier Méhu
Soutien technique & logistique : Manuel Goepfert

Contact : metmap@orbifly.com




SOURCES & CREDITS :

   NOAA